Time;durP1;ratioP1;P1;durP2;ratioP2;P2;SDS_P1;SDS_P2;PMS_P1;PMS_P2;Temp;Humidity;BMP_temperature;BMP_pressure;BME280_temperature;BME280_humidity;BME280_pressure;Samples;Min_cycle;Max_cycle;Signal;HPM_P1;HPM_P2
2022/02/09 00:04:56;;;;;;;22.92;21.35;;;8.40;85.20;;;;;;5071340;28;20643;-73
2022/02/09 00:07:30;;;;;;;23.60;22.20;;;8.50;85.00;;;;;;5072280;28;20205;-73
2022/02/09 00:09:57;;;;;;;25.58;23.52;;;8.50;84.50;;;;;;5071784;28;20246;-73
2022/02/09 00:12:31;;;;;;;22.40;20.80;;;8.50;84.80;;;;;;5071975;28;20217;-73
2022/02/09 00:15:12;;;;;;;21.30;19.90;;;8.50;84.90;;;;;;5072014;28;20653;-73
2022/02/09 00:17:46;;;;;;;23.15;21.45;;;8.50;84.50;;;;;;5071893;28;20197;-73
2022/02/09 00:37:15;;;;;;;22.10;20.55;;;8.50;85.20;;;;;;5080880;28;20197;-72
2022/02/09 00:40:04;;;;;;;21.75;20.45;;;8.50;85.80;;;;;;5089792;28;20529;-72
2022/02/09 00:58:45;;;;;;;22.60;20.50;;;8.40;85.50;;;;;;5089349;28;20194;-72
2022/02/09 01:40:53;;;;;;;22.73;21.13;;;8.30;85.00;;;;;;5088607;28;20215;-72
2022/02/09 01:57:10;;;;;;;22.00;20.48;;;8.40;84.80;;;;;;5075099;28;20316;-72
2022/02/09 01:59:38;;;;;;;22.77;21.23;;;8.30;85.20;;;;;;5074752;28;20202;-72
2022/02/09 02:02:06;;;;;;;21.58;20.20;;;8.30;85.20;;;;;;5074980;28;20219;-72
2022/02/09 02:04:33;;;;;;;21.48;20.17;;;8.30;85.10;;;;;;5074873;28;20205;-72
2022/02/09 02:07:04;;;;;;;21.83;20.20;;;8.30;84.80;;;;;;5074915;28;20301;-72
2022/02/09 02:09:35;;;;;;;21.13;19.83;;;8.30;84.80;;;;;;5074585;28;20240;-72
2022/02/09 02:12:09;;;;;;;22.40;20.77;;;8.30;85.00;;;;;;5074715;28;20263;-72
2022/02/09 02:14:41;;;;;;;21.52;20.05;;;8.30;85.20;;;;;;5074757;28;20256;-72
2022/02/09 02:17:14;;;;;;;20.77;19.48;;;8.30;85.20;;;;;;5074519;28;20240;-72
2022/02/09 02:19:45;;;;;;;21.38;19.95;;;8.30;85.10;;;;;;5074473;28;20202;-72
2022/02/09 02:22:31;;;;;;;20.83;19.63;;;8.30;86.40;;;;;;5074531;28;20227;-72
2022/02/09 02:25:24;;;;;;;21.80;20.00;;;8.30;85.80;;;;;;5074571;28;20249;-72
2022/02/09 02:28:19;;;;;;;22.92;21.10;;;8.30;85.20;;;;;;5074385;28;20209;-72
2022/02/09 02:31:11;;;;;;;21.60;20.10;;;8.30;84.80;;;;;;5073953;28;20229;-72
2022/02/09 02:34:20;;;;;;;21.75;20.23;;;8.30;84.70;;;;;;5074294;28;20246;-72
2022/02/09 02:37:02;;;;;;;21.50;19.98;;;8.30;86.60;;;;;;5074130;28;20288;-72
2022/02/09 03:13:10;;;;;;;21.50;20.20;;;8.30;83.20;;;;;;5089711;27;20559;-72
2022/02/09 03:15:43;;;;;;;22.08;20.60;;;8.40;83.10;;;;;;5089881;28;20237;-72
2022/02/09 03:18:33;;;;;;;21.88;20.23;;;8.40;83.50;;;;;;5089813;28;20219;-72
2022/02/09 03:21:07;;;;;;;21.75;20.45;;;8.40;83.20;;;;;;5089715;28;20209;-72
2022/02/09 03:23:45;;;;;;;22.17;20.90;;;8.40;82.90;;;;;;5089907;28;20297;-72
2022/02/09 03:42:52;;;;;;;22.88;21.48;;;8.30;83.60;;;;;;5089663;28;20212;-72
2022/02/09 03:46:01;;;;;;;20.95;19.73;;;8.30;83.30;;;;;;5089616;28;20201;-72
2022/02/09 03:48:44;;;;;;;23.85;22.38;;;8.30;83.10;;;;;;5089262;28;20194;-72
2022/02/09 03:54:01;;;;;;;22.38;20.98;;;8.40;82.60;;;;;;5089116;28;20192;-73
2022/02/09 03:56:40;;;;;;;20.98;19.77;;;8.40;82.70;;;;;;5089317;28;20239;-73
2022/02/09 03:59:07;;;;;;;21.70;20.10;;;8.40;82.70;;;;;;5089157;28;20208;-73
2022/02/09 04:01:39;;;;;;;20.63;19.52;;;8.40;82.80;;;;;;5089120;28;20213;-73
2022/02/09 04:04:07;;;;;;;22.45;21.05;;;8.30;83.00;;;;;;5089351;28;20266;-73
2022/02/09 04:06:36;;;;;;;22.17;20.88;;;8.30;82.90;;;;;;5089205;28;20250;-73
2022/02/09 04:09:07;;;;;;;22.55;21.25;;;8.30;83.10;;;;;;5089019;28;20236;-73
2022/02/09 04:11:40;;;;;;;23.80;22.40;;;8.30;83.20;;;;;;5088839;28;20260;-73
2022/02/09 04:14:13;;;;;;;22.75;21.33;;;8.30;83.20;;;;;;5089074;28;20616;-73
2022/02/09 04:16:54;;;;;;;23.15;21.75;;;8.30;85.00;;;;;;5089007;28;20212;-72
2022/02/09 04:19:30;;;;;;;24.58;22.60;;;8.20;83.40;;;;;;5088796;28;20202;-72
2022/02/09 04:38:38;;;;;;;24.35;22.85;;;8.30;82.60;;;;;;5075224;28;20200;-72
2022/02/09 04:41:46;;;;;;;22.85;21.42;;;8.40;82.40;;;;;;5074904;28;20285;-72
2022/02/09 04:44:28;;;;;;;24.50;22.90;;;8.30;82.80;;;;;;5074838;28;20203;-72
2022/02/09 04:49:58;;;;;;;22.63;21.17;;;8.30;83.30;;;;;;5074756;28;20276;-72
2022/02/09 04:52:35;;;;;;;22.38;21.08;;;8.30;83.20;;;;;;5074788;28;20369;-72
2022/02/09 04:55:19;;;;;;;25.17;23.63;;;8.30;83.00;;;;;;5074549;28;20258;-71
2022/02/09 04:57:50;;;;;;;22.50;21.13;;;8.40;83.10;;;;;;5074827;28;20288;-72
2022/02/09 05:00:27;;;;;;;24.98;23.55;;;8.30;83.50;;;;;;5074410;28;20221;-72
2022/02/09 05:28:03;;;;;;;23.63;22.23;;;8.40;82.40;;;;;;5066846;28;20201;-72
2022/02/09 05:30:30;;;;;;;22.85;21.30;;;8.40;82.30;;;;;;5073841;28;20308;-72
2022/02/09 05:32:57;;;;;;;26.58;24.80;;;8.30;82.20;;;;;;5073995;28;20629;-72
2022/02/09 05:35:25;;;;;;;23.30;21.85;;;8.40;81.90;;;;;;5072858;28;20197;-72
2022/02/09 05:37:55;;;;;;;22.77;21.17;;;8.40;81.20;;;;;;5074002;28;20255;-72
2022/02/09 05:40:22;;;;;;;25.27;23.67;;;8.30;81.00;;;;;;5073743;28;20654;-71
2022/02/09 05:42:49;;;;;;;23.77;22.08;;;8.30;80.80;;;;;;5073927;28;20280;-72
2022/02/09 05:45:18;;;;;;;23.65;21.95;;;8.30;80.60;;;;;;5073732;28;20286;-72
2022/02/09 05:50:45;;;;;;;24.55;22.88;;;8.30;80.70;;;;;;5073563;28;20335;-71
2022/02/09 05:53:17;;;;;;;23.50;21.73;;;8.40;80.60;;;;;;5073712;28;20779;-72
2022/02/09 05:55:50;;;;;;;23.70;22.40;;;8.40;81.10;;;;;;5073651;28;20230;-72
2022/02/09 05:58:46;;;;;;;23.55;22.05;;;8.40;81.10;;;;;;5073557;28;20227;-72
2022/02/09 06:01:14;;;;;;;22.20;21.08;;;8.30;81.10;;;;;;5073335;28;20253;-72
2022/02/09 06:03:41;;;;;;;25.25;23.75;;;8.30;81.20;;;;;;5073462;28;20664;-72
2022/02/09 06:06:09;;;;;;;23.33;21.60;;;8.30;83.20;;;;;;5073520;28;20203;-71
2022/02/09 06:08:38;;;;;;;22.90;21.35;;;8.40;82.60;;;;;;5073469;28;20202;-72
2022/02/09 06:11:23;;;;;;;22.17;20.88;;;8.40;82.20;;;;;;5073533;28;20221;-72
2022/02/09 06:22:06;;;;;;;23.00;21.60;;;8.30;83.20;;;;;;5061945;28;20230;-72
2022/02/09 06:24:35;;;;;;;24.10;22.33;;;8.30;82.00;;;;;;5073009;28;20194;-72
2022/02/09 06:27:02;;;;;;;23.30;21.80;;;8.30;81.80;;;;;;5073037;28;20713;-72
2022/02/09 06:29:29;;;;;;;22.55;21.15;;;8.30;81.80;;;;;;5072854;28;20201;-72
2022/02/09 06:31:56;;;;;;;23.10;21.55;;;8.30;81.80;;;;;;5072803;28;20230;-72
2022/02/09 06:34:23;;;;;;;23.40;21.90;;;8.30;82.60;;;;;;5072909;28;20201;-72
2022/02/09 06:36:57;;;;;;;24.90;23.25;;;8.40;82.20;;;;;;5072906;28;20287;-72
2022/02/09 06:39:25;;;;;;;25.02;23.50;;;8.40;82.00;;;;;;5072759;28;20251;-71
2022/02/09 06:41:53;;;;;;;24.55;22.92;;;8.40;81.90;;;;;;5072742;28;20320;-71
2022/02/09 06:44:21;;;;;;;23.92;22.38;;;8.40;81.70;;;;;;5073039;28;20473;-71
2022/02/09 06:46:48;;;;;;;23.90;22.13;;;8.40;81.50;;;;;;5072440;28;20198;-71
2022/02/09 06:49:17;;;;;;;22.92;21.33;;;8.30;81.90;;;;;;5072605;28;20212;-71
2022/02/09 06:51:46;;;;;;;23.20;21.70;;;8.40;81.60;;;;;;5072583;28;20354;-73
2022/02/09 06:54:16;;;;;;;25.42;23.67;;;8.40;81.00;;;;;;5072689;28;20206;-72
2022/02/09 06:57:00;;;;;;;23.42;21.77;;;8.40;80.90;;;;;;5072663;28;20201;-71
2022/02/09 06:59:30;;;;;;;26.70;24.85;;;8.50;80.50;;;;;;5072485;28;20612;-71
2022/02/09 07:01:59;;;;;;;27.08;25.17;;;8.60;80.40;;;;;;5072507;28;20276;-71
2022/02/09 07:04:26;;;;;;;27.00;25.40;;;8.50;80.90;;;;;;5072510;28;20201;-71
2022/02/09 07:06:55;;;;;;;24.25;22.52;;;8.40;80.70;;;;;;5072597;28;20227;-71
2022/02/09 07:09:23;;;;;;;24.10;22.30;;;8.30;80.20;;;;;;5072408;28;20657;-71
2022/02/09 07:11:50;;;;;;;24.23;22.58;;;8.30;79.80;;;;;;5072091;28;20845;-72
2022/02/09 07:14:23;;;;;;;24.48;22.92;;;8.20;80.10;;;;;;5072587;28;20226;-72
2022/02/09 07:16:52;;;;;;;24.50;22.80;;;8.10;80.60;;;;;;5072524;28;20609;-72
2022/02/09 07:19:19;;;;;;;23.50;22.08;;;8.00;81.80;;;;;;5072034;28;20671;-72
2022/02/09 07:21:47;;;;;;;26.10;23.90;;;8.00;81.50;;;;;;5072245;28;20221;-72
2022/02/09 07:24:16;;;;;;;26.75;24.85;;;8.00;80.70;;;;;;5072174;28;20195;-72
2022/02/09 07:27:11;;;;;;;27.10;25.10;;;7.90;80.90;;;;;;5072492;28;20197;-72
2022/02/09 07:29:37;;;;;;;25.67;23.70;;;7.90;80.70;;;;;;5072028;28;20321;-72
2022/02/09 07:32:07;;;;;;;24.95;23.33;;;7.90;80.90;;;;;;5072345;28;20229;-72
2022/02/09 07:34:34;;;;;;;26.13;24.10;;;7.90;80.70;;;;;;5072289;28;20197;-72
2022/02/09 07:37:01;;;;;;;24.77;23.10;;;7.80;80.50;;;;;;5072241;28;20200;-72
2022/02/09 07:39:28;;;;;;;26.20;24.27;;;7.90;80.20;;;;;;5072051;28;20203;-71
2022/02/09 07:41:56;;;;;;;27.45;24.67;;;7.80;79.90;;;;;;5072147;28;20274;-72
2022/02/09 07:44:43;;;;;;;24.98;23.33;;;7.80;81.00;;;;;;5072162;28;20226;-72
2022/02/09 07:47:33;;;;;;;26.75;24.77;;;7.80;80.70;;;;;;5072236;28;20201;-72
2022/02/09 07:50:29;;;;;;;25.92;24.25;;;7.80;81.20;;;;;;5071822;28;20202;-72
2022/02/09 07:53:07;;;;;;;27.23;25.52;;;7.70;80.60;;;;;;5072348;28;20222;-72
2022/02/09 07:55:34;;;;;;;24.40;22.90;;;7.70;79.90;;;;;;5072161;28;20288;-72
2022/02/09 07:58:01;;;;;;;25.65;23.40;;;7.70;79.50;;;;;;5072749;28;20263;-72
2022/02/09 08:00:28;;;;;;;25.25;23.17;;;7.80;79.20;;;;;;5075516;28;20612;-72
2022/02/09 08:02:57;;;;;;;27.70;25.48;;;7.80;81.70;;;;;;5075761;28;20633;-72
2022/02/09 08:05:25;;;;;;;26.63;24.30;;;7.80;80.50;;;;;;5075783;28;20201;-72
2022/02/09 08:07:53;;;;;;;25.30;23.60;;;7.90;79.30;;;;;;5075625;28;20201;-72
2022/02/09 08:10:25;;;;;;;27.85;25.42;;;7.90;78.70;;;;;;5075222;28;20334;-71
2022/02/09 08:20:26;;;;;;;27.73;25.52;;;8.00;78.10;;;;;;5075414;28;20256;-72
2022/02/09 08:24:17;;;;;;;26.02;24.30;;;8.00;77.70;;;;;;5075225;28;20564;-72
2022/02/09 08:26:51;;;;;;;26.40;24.65;;;8.00;77.90;;;;;;5075332;28;20232;-72
2022/02/09 08:29:23;;;;;;;25.70;24.00;;;8.00;79.10;;;;;;5075190;28;20195;-72
2022/02/09 08:34:39;;;;;;;25.70;24.20;;;8.10;78.40;;;;;;5074838;28;20306;-72
2022/02/09 08:37:07;;;;;;;25.42;23.63;;;8.10;78.10;;;;;;5075210;28;20295;-72
2022/02/09 08:39:35;;;;;;;24.65;22.70;;;8.20;77.70;;;;;;5075383;28;20229;-71
2022/02/09 08:42:02;;;;;;;26.10;24.10;;;8.30;77.80;;;;;;5075050;28;20218;-72
2022/02/09 08:44:29;;;;;;;26.33;24.48;;;8.30;77.80;;;;;;5075069;28;20232;-72
2022/02/09 08:46:56;;;;;;;26.00;24.30;;;8.40;78.20;;;;;;5075081;28;20217;-72
2022/02/09 08:49:22;;;;;;;25.73;24.02;;;8.40;77.70;;;;;;5074920;28;20653;-72
2022/02/09 08:51:51;;;;;;;24.35;22.95;;;8.50;77.40;;;;;;5075041;28;20220;-72
2022/02/09 08:54:18;;;;;;;26.00;24.05;;;8.60;77.30;;;;;;5074978;28;20322;-72
2022/02/09 08:56:45;;;;;;;24.55;23.00;;;8.60;77.30;;;;;;5074951;28;20198;-72
2022/02/09 08:59:12;;;;;;;27.02;24.90;;;8.60;77.50;;;;;;5074638;28;20285;-72
2022/02/09 09:01:42;;;;;;;25.48;23.20;;;8.60;77.70;;;;;;5074820;28;20218;-72
2022/02/09 09:04:17;;;;;;;24.30;22.80;;;8.70;77.50;;;;;;5074793;28;20685;-72
2022/02/09 09:06:51;;;;;;;24.90;22.77;;;8.80;77.50;;;;;;5074670;28;20255;-71
2022/02/09 09:09:27;;;;;;;26.08;24.33;;;9.00;77.00;;;;;;5074327;28;20247;-72
2022/02/09 09:17:42;;;;;;;26.97;25.40;;;9.20;77.10;;;;;;5074200;28;21074;-72
2022/02/09 09:59:27;;;;;;;24.93;23.30;;;10.30;74.20;;;;;;5073385;28;20981;-72
2022/02/09 10:01:53;;;;;;;26.10;24.20;;;10.30;73.70;;;;;;5072944;28;20472;-72
2022/02/09 10:04:36;;;;;;;25.93;24.23;;;10.30;73.70;;;;;;5073355;28;20517;-72
2022/02/09 10:35:17;;;;;;;25.43;23.63;;;11.10;70.20;;;;;;5065283;28;20448;-72
2022/02/09 10:37:44;;;;;;;26.20;24.50;;;11.10;70.00;;;;;;5072844;28;20518;-72
2022/02/09 10:40:37;;;;;;;27.33;25.43;;;11.20;69.40;;;;;;5072436;28;20553;-72
2022/02/09 10:43:05;;;;;;;26.70;24.80;;;11.20;69.40;;;;;;5072661;28;20806;-72
2022/02/09 10:45:36;;;;;;;25.40;23.90;;;11.30;68.90;;;;;;5072650;28;20453;-72
2022/02/09 10:48:08;;;;;;;25.50;23.80;;;11.30;68.70;;;;;;5072607;28;20459;-72
2022/02/09 10:50:37;;;;;;;25.03;23.37;;;11.40;68.60;;;;;;5072437;28;20469;-72
2022/02/09 10:53:06;;;;;;;27.87;25.70;;;11.50;68.20;;;;;;5072414;28;20572;-72
2022/02/09 10:55:38;;;;;;;26.17;24.37;;;11.50;68.30;;;;;;5072521;28;20453;-72
2022/02/09 10:58:08;;;;;;;24.70;23.20;;;11.60;68.30;;;;;;5072378;28;20491;-72
2022/02/09 11:00:35;;;;;;;26.40;24.40;;;11.70;68.00;;;;;;5072183;28;20479;-72
2022/02/09 11:03:02;;;;;;;28.30;26.60;;;11.70;67.80;;;;;;5072499;28;20507;-72
2022/02/09 11:05:31;;;;;;;24.83;23.33;;;11.70;67.90;;;;;;5072446;28;20955;-72
2022/02/09 11:07:58;;;;;;;27.70;25.80;;;11.70;67.90;;;;;;5072451;28;20540;-72
2022/02/09 11:10:25;;;;;;;27.20;25.20;;;11.80;67.60;;;;;;5072154;28;20478;-72
2022/02/09 11:12:53;;;;;;;25.53;24.00;;;11.90;67.00;;;;;;5072264;28;20859;-72
2022/02/09 11:15:21;;;;;;;25.40;23.77;;;12.00;67.00;;;;;;5072418;28;20495;-72
2022/02/09 11:17:50;;;;;;;26.37;24.73;;;12.00;67.10;;;;;;5072326;28;20453;-72
2022/02/09 11:20:22;;;;;;;25.10;23.60;;;12.00;67.00;;;;;;5072105;28;20510;-72
2022/02/09 11:22:50;;;;;;;26.13;24.27;;;12.10;66.60;;;;;;5072095;28;20456;-72
2022/02/09 11:25:27;;;;;;;25.53;23.63;;;12.20;66.50;;;;;;5072280;28;20463;-72
2022/02/09 11:28:18;;;;;;;25.87;23.90;;;12.20;66.50;;;;;;5072460;28;20453;-72
2022/02/09 11:31:00;;;;;;;25.40;23.87;;;12.30;66.40;;;;;;5072114;28;20477;-72
2022/02/09 11:33:36;;;;;;;25.60;24.03;;;12.30;66.10;;;;;;5073539;28;20487;-72
2022/02/09 11:36:19;;;;;;;25.03;23.33;;;12.30;66.00;;;;;;5076318;28;20522;-72
2022/02/09 11:38:52;;;;;;;26.13;24.43;;;12.50;65.90;;;;;;5076224;28;20457;-72
2022/02/09 11:41:23;;;;;;;25.87;24.10;;;12.60;65.70;;;;;;5075911;28;20481;-73
2022/02/09 11:44:09;;;;;;;25.90;24.40;;;12.60;65.70;;;;;;5076097;28;20485;-72
2022/02/09 11:47:18;;;;;;;26.37;24.67;;;12.60;65.80;;;;;;5076119;28;20460;-72
2022/02/09 12:01:05;;;;;;;25.20;23.70;;;13.10;64.90;;;;;;5075511;28;20562;-73
2022/02/09 12:09:25;;;;;;;27.90;26.40;;;13.30;64.30;;;;;;5075476;28;20438;-72
2022/02/09 12:12:01;;;;;;;25.60;24.20;;;13.40;64.10;;;;;;5075230;28;20910;-73
2022/02/09 12:14:51;;;;;;;27.10;25.70;;;13.50;63.90;;;;;;5075403;28;20476;-73
2022/02/09 12:17:30;;;;;;;28.60;27.00;;;13.60;63.90;;;;;;5075221;28;20456;-73
2022/02/09 12:20:07;;;;;;;31.60;29.70;;;13.60;63.90;;;;;;5075013;28;20474;-72
2022/02/09 12:22:43;;;;;;;25.07;23.57;;;13.70;64.20;;;;;;5075178;28;20460;-73
2022/02/09 12:25:10;;;;;;;25.57;24.07;;;13.70;63.90;;;;;;5075109;28;20459;-73
2022/02/09 12:27:38;;;;;;;24.87;23.23;;;13.70;62.70;;;;;;5075050;28;20540;-72
2022/02/09 12:30:10;;;;;;;26.10;24.33;;;13.70;62.80;;;;;;5074883;28;20453;-72
2022/02/09 12:32:38;;;;;;;26.50;25.00;;;13.70;62.80;;;;;;5075174;28;20455;-73
2022/02/09 12:35:07;;;;;;;23.67;22.23;;;13.80;62.80;;;;;;5075028;28;20513;-73
2022/02/09 12:37:36;;;;;;;26.40;24.90;;;13.90;62.80;;;;;;5074953;28;20512;-72
2022/02/09 12:40:07;;;;;;;26.83;24.90;;;13.80;63.20;;;;;;5074534;28;20980;-73
2022/02/09 12:42:36;;;;;;;25.43;23.60;;;13.80;63.20;;;;;;5074968;28;20513;-73
2022/02/09 12:45:08;;;;;;;27.73;25.70;;;13.90;62.20;;;;;;5074461;28;20510;-72
2022/02/09 12:47:37;;;;;;;27.27;25.27;;;13.60;62.40;;;;;;5074844;28;20458;-73
2022/02/09 12:50:08;;;;;;;27.13;25.00;;;13.70;62.40;;;;;;5074524;28;20869;-72
2022/02/09 12:52:36;;;;;;;26.17;24.10;;;13.60;62.70;;;;;;5074809;28;20818;-72
2022/02/09 12:55:07;;;;;;;26.60;24.33;;;13.60;62.80;;;;;;5074630;28;20479;-72
2022/02/09 12:57:35;;;;;;;25.90;24.00;;;13.60;62.90;;;;;;5074736;28;20510;-72
2022/02/09 13:00:04;;;;;;;25.40;23.80;;;13.80;62.40;;;;;;5074318;28;20457;-72
2022/02/09 13:02:44;;;;;;;25.27;23.47;;;13.70;62.50;;;;;;5074544;28;20452;-72
2022/02/09 13:05:11;;;;;;;27.07;25.30;;;13.80;62.40;;;;;;5074273;28;20447;-72
2022/02/09 13:07:38;;;;;;;25.60;23.90;;;13.80;62.50;;;;;;5074461;28;20454;-72
2022/02/09 13:10:08;;;;;;;26.67;24.70;;;13.80;62.60;;;;;;5074108;28;20538;-72
2022/02/09 13:12:41;;;;;;;26.80;25.13;;;13.60;62.70;;;;;;5074270;28;20518;-72
2022/02/09 13:15:18;;;;;;;27.83;25.80;;;13.70;62.80;;;;;;5074250;28;20490;-72
2022/02/09 13:23:38;;;;;;;26.90;25.23;;;13.80;62.30;;;;;;5071965;28;20441;-72
2022/02/09 14:03:14;;;;;;;29.80;27.70;;;13.60;63.70;;;;;;5073406;28;20447;-73
2022/02/09 14:11:37;;;;;;;26.93;25.17;;;13.70;63.50;;;;;;5068168;28;21014;-72
2022/02/09 14:14:49;;;;;;;25.03;23.60;;;13.60;63.70;;;;;;5073164;28;20567;-72
2022/02/09 14:17:16;;;;;;;26.97;24.73;;;13.70;63.50;;;;;;5072930;28;20448;-72
2022/02/09 14:47:58;;;;;;;25.63;24.23;;;14.20;62.90;;;;;;5073143;28;20484;-72
2022/02/09 14:53:19;;;;;;;26.20;24.60;;;14.20;62.60;;;;;;5072710;28;20434;-72
2022/02/09 14:55:55;;;;;;;26.77;24.93;;;14.20;62.40;;;;;;5072589;28;20449;-72
2022/02/09 14:58:26;;;;;;;27.97;26.03;;;14.10;62.90;;;;;;5072569;28;20545;-73
2022/02/09 15:01:02;;;;;;;31.37;29.00;;;14.10;62.70;;;;;;5072314;28;20999;-72
2022/02/09 15:06:50;;;;;;;28.97;27.17;;;13.90;63.40;;;;;;5061645;28;20517;-72
2022/02/09 15:09:20;;;;;;;28.73;27.07;;;14.00;63.40;;;;;;5072329;28;20997;-73
2022/02/09 15:12:01;;;;;;;25.43;23.93;;;14.10;63.20;;;;;;5072279;28;20915;-73
2022/02/09 15:14:34;;;;;;;27.23;25.43;;;14.10;63.10;;;;;;5072253;28;20474;-72
2022/02/09 15:17:26;;;;;;;24.93;23.43;;;14.10;63.20;;;;;;5072395;28;20481;-73
2022/02/09 15:20:14;;;;;;;24.03;22.93;;;14.00;63.30;;;;;;5072139;28;20455;-73
2022/02/09 15:22:44;;;;;;;27.10;25.17;;;14.00;63.20;;;;;;5072163;28;20987;-73
2022/02/09 15:25:16;;;;;;;27.30;25.07;;;14.00;63.20;;;;;;5072466;28;20444;-73
2022/02/09 15:27:46;;;;;;;26.93;24.77;;;14.00;63.30;;;;;;5072285;28;20818;-73
2022/02/09 15:30:13;;;;;;;25.57;24.00;;;13.90;63.40;;;;;;5072076;28;20994;-73
2022/02/09 15:32:44;;;;;;;28.23;26.50;;;14.00;63.40;;;;;;5072186;28;20475;-73
2022/02/09 15:35:17;;;;;;;24.30;22.80;;;14.00;63.30;;;;;;5072122;28;20484;-73
2022/02/09 15:37:49;;;;;;;25.13;23.63;;;14.00;63.10;;;;;;5072275;28;20448;-72
2022/02/09 15:40:32;;;;;;;25.90;24.20;;;13.90;63.40;;;;;;5072020;28;20515;-72
2022/02/09 15:43:17;;;;;;;27.13;25.33;;;13.90;63.70;;;;;;5072143;28;20457;-72
2022/02/09 15:57:00;;;;;;;26.23;24.60;;;13.70;64.00;;;;;;5072446;28;20489;-72
2022/02/09 15:59:55;;;;;;;28.43;26.43;;;13.70;64.20;;;;;;5071762;28;20500;-73
2022/02/09 16:10:50;;;;;;;25.27;23.67;;;13.50;64.60;;;;;;5071667;28;20554;-72
2022/02/09 16:21:51;;;;;;;25.93;24.07;;;13.10;65.70;;;;;;5075312;28;20495;-72
2022/02/09 16:24:29;;;;;;;25.40;23.70;;;13.00;66.00;;;;;;5075150;28;20862;-72
2022/02/09 16:38:04;;;;;;;23.97;22.33;;;12.60;67.50;;;;;;5075067;28;20449;-73
2022/02/09 16:46:14;;;;;;;25.77;23.97;;;12.40;68.80;;;;;;5075008;28;20425;-72
2022/02/09 16:48:53;;;;;;;27.13;25.17;;;12.30;69.10;;;;;;5074874;28;20446;-72
2022/02/09 16:51:22;;;;;;;26.37;24.73;;;12.10;69.50;;;;;;5074588;28;20473;-72
2022/02/09 16:54:03;;;;;;;26.67;24.67;;;12.00;70.70;;;;;;5074559;28;20536;-72
2022/02/09 17:21:13;;;;;;;26.33;24.50;;;10.60;75.70;;;;;;5074002;28;20806;-72
2022/02/09 17:23:40;;;;;;;26.10;24.20;;;10.50;76.20;;;;;;5074105;28;20446;-72
2022/02/09 17:26:08;;;;;;;25.27;23.37;;;10.40;76.30;;;;;;5074290;28;21183;-72
2022/02/09 17:28:36;;;;;;;25.70;24.17;;;10.30;76.60;;;;;;5074146;28;20520;-72
2022/02/09 17:31:12;;;;;;;27.83;25.93;;;10.20;77.10;;;;;;5073974;28;20476;-72
2022/02/09 17:34:04;;;;;;;25.93;24.00;;;10.10;77.50;;;;;;5073865;28;20455;-72
2022/02/09 17:36:46;;;;;;;25.60;23.83;;;10.00;77.90;;;;;;5074156;28;20448;-72
2022/02/09 17:39:26;;;;;;;25.70;24.03;;;9.90;78.80;;;;;;5073835;28;20942;-72
2022/02/09 17:55:57;;;;;;;26.20;24.30;;;9.40;80.50;;;;;;5048519;28;20488;-72
2022/02/09 17:58:28;;;;;;;25.30;23.67;;;9.30;80.70;;;;;;5073628;28;20457;-72
2022/02/09 18:00:56;;;;;;;25.30;23.60;;;9.20;81.00;;;;;;5073192;28;20477;-72
2022/02/09 18:03:23;;;;;;;25.90;23.77;;;9.10;81.30;;;;;;5073511;28;20460;-72
2022/02/09 18:05:52;;;;;;;26.70;24.07;;;9.00;81.30;;;;;;5073414;28;20444;-72
2022/02/09 18:08:25;;;;;;;26.17;24.30;;;8.90;81.60;;;;;;5073561;28;20543;-72
2022/02/09 18:11:05;;;;;;;24.80;23.20;;;8.80;82.00;;;;;;5072954;28;20587;-72
2022/02/09 18:13:59;;;;;;;25.77;23.75;;;8.80;81.90;;;;;;5073285;28;20447;-72
2022/02/09 18:30:22;;;;;;;25.92;24.33;;;8.40;83.50;;;;;;5072776;28;20657;-72
2022/02/09 18:44:14;;;;;;;26.15;23.98;;;8.00;85.00;;;;;;5072775;28;20199;-72
2022/02/09 18:46:59;;;;;;;26.23;24.17;;;8.00;84.90;;;;;;5072735;28;20206;-72
2022/02/09 18:58:23;;;;;;;25.08;23.08;;;7.80;85.10;;;;;;5072729;28;20204;-72
2022/02/09 19:01:08;;;;;;;25.73;24.02;;;7.80;85.10;;;;;;5072175;28;20587;-72
2022/02/09 19:03:34;;;;;;;24.83;23.27;;;7.70;85.40;;;;;;5072345;28;20219;-72
2022/02/09 19:06:11;;;;;;;26.42;24.52;;;7.60;85.80;;;;;;5072794;28;20193;-72
2022/02/09 19:17:03;;;;;;;26.63;24.73;;;7.40;86.50;;;;;;5061552;28;20206;-72
2022/02/09 19:19:39;;;;;;;26.85;25.00;;;7.40;86.30;;;;;;5072027;28;20205;-72
2022/02/09 19:30:51;;;;;;;25.75;23.40;;;7.20;87.50;;;;;;5072088;28;20213;-72
2022/02/09 19:46:56;;;;;;;26.52;24.60;;;7.10;88.40;;;;;;5071970;28;20190;-71
2022/02/09 19:49:38;;;;;;;26.10;24.30;;;7.10;88.60;;;;;;5071912;28;20244;-71
2022/02/09 19:52:15;;;;;;;24.65;22.70;;;7.10;88.40;;;;;;5071979;28;20223;-72
2022/02/09 19:54:58;;;;;;;25.88;24.08;;;7.10;88.10;;;;;;5073597;28;20215;-71
2022/02/09 19:57:25;;;;;;;25.08;23.27;;;7.00;88.00;;;;;;5075690;28;20195;-71
2022/02/09 19:59:54;;;;;;;25.67;23.90;;;7.00;88.00;;;;;;5075667;28;20207;-71
2022/02/09 20:02:24;;;;;;;24.88;23.08;;;6.90;88.20;;;;;;5075550;28;20294;-71
2022/02/09 20:04:55;;;;;;;23.98;22.27;;;6.90;88.10;;;;;;5075707;28;20303;-71
2022/02/09 20:07:22;;;;;;;24.15;22.55;;;6.80;87.80;;;;;;5075741;28;20261;-71
2022/02/09 20:09:49;;;;;;;25.25;23.25;;;6.80;87.90;;;;;;5075462;28;20226;-71
2022/02/09 20:12:16;;;;;;;25.42;23.67;;;6.70;88.60;;;;;;5075300;28;20211;-71
2022/02/09 20:14:46;;;;;;;25.15;23.30;;;6.60;88.60;;;;;;5075430;28;20197;-71
2022/02/09 20:17:13;;;;;;;25.75;23.65;;;6.60;88.80;;;;;;5075434;28;20230;-71
2022/02/09 20:19:47;;;;;;;24.45;22.45;;;6.70;89.10;;;;;;5075064;28;20199;-71
2022/02/09 20:22:17;;;;;;;23.75;21.95;;;6.60;89.10;;;;;;5075326;28;20246;-71
2022/02/09 20:24:44;;;;;;;25.45;23.33;;;6.60;88.70;;;;;;5075111;28;20209;-71
2022/02/09 20:27:14;;;;;;;25.08;23.08;;;6.50;89.10;;;;;;5075219;28;20207;-72
2022/02/09 20:29:42;;;;;;;25.00;23.00;;;6.50;89.10;;;;;;5075077;28;20668;-71
2022/02/09 20:32:17;;;;;;;24.58;22.88;;;6.50;89.00;;;;;;5075069;28;20226;-71
2022/02/09 20:34:52;;;;;;;25.15;23.35;;;6.50;88.80;;;;;;5074962;28;20655;-71
2022/02/09 20:37:20;;;;;;;24.30;22.60;;;6.50;88.00;;;;;;5075135;28;20281;-71
2022/02/09 20:39:56;;;;;;;24.50;22.60;;;6.40;88.20;;;;;;5075001;28;20199;-71
2022/02/09 20:42:23;;;;;;;24.73;22.55;;;6.40;88.60;;;;;;5075087;28;20202;-72
2022/02/09 20:44:56;;;;;;;25.35;22.83;;;6.40;88.30;;;;;;5074859;28;20291;-72
2022/02/09 20:47:23;;;;;;;24.17;22.38;;;6.40;88.50;;;;;;5074992;28;20213;-71
2022/02/09 20:49:51;;;;;;;25.67;23.90;;;6.30;88.60;;;;;;5074643;28;20195;-71
2022/02/09 20:52:18;;;;;;;23.45;21.75;;;6.20;89.40;;;;;;5074714;28;20206;-71
2022/02/09 20:54:45;;;;;;;23.35;21.85;;;6.20;89.40;;;;;;5074771;28;20194;-73
2022/02/09 20:57:12;;;;;;;23.42;21.23;;;6.20;88.70;;;;;;5074788;28;20298;-72
2022/02/09 20:59:44;;;;;;;23.90;22.20;;;6.40;87.60;;;;;;5074454;28;20649;-71
2022/02/09 21:02:32;;;;;;;23.65;21.80;;;6.40;87.10;;;;;;5074800;28;20700;-71
2022/02/09 21:05:21;;;;;;;23.95;22.13;;;6.30;87.00;;;;;;5074220;28;20251;-72
2022/02/09 21:07:56;;;;;;;24.05;22.15;;;6.10;88.20;;;;;;5074617;28;20293;-72
2022/02/09 21:10:36;;;;;;;22.95;21.30;;;6.00;88.80;;;;;;5074340;28;20212;-72
2022/02/09 21:13:09;;;;;;;22.35;20.85;;;6.00;88.10;;;;;;5074373;28;20575;-72
2022/02/09 21:15:48;;;;;;;24.48;22.52;;;5.90;88.10;;;;;;5074387;28;20222;-72
2022/02/09 21:18:34;;;;;;;24.08;22.30;;;5.90;88.90;;;;;;5074190;28;20695;-72
2022/02/09 21:21:33;;;;;;;22.95;21.33;;;5.90;88.20;;;;;;5074199;28;20219;-72
2022/02/09 21:32:44;;;;;;;23.17;21.52;;;5.90;86.40;;;;;;5074231;28;20200;-72
2022/02/09 21:49:30;;;;;;;23.67;22.02;;;5.40;86.60;;;;;;5073490;28;20192;-72
2022/02/09 21:52:27;;;;;;;26.33;24.52;;;5.30;86.90;;;;;;5073711;28;20216;-72
2022/02/09 21:54:59;;;;;;;23.45;21.45;;;5.30;87.10;;;;;;5073513;28;20205;-72
2022/02/09 21:57:37;;;;;;;24.23;22.58;;;5.30;86.90;;;;;;5073704;28;20212;-72
2022/02/09 22:00:27;;;;;;;22.77;21.42;;;5.30;86.50;;;;;;5073333;28;20232;-72
2022/02/09 22:16:51;;;;;;;26.67;24.52;;;5.30;85.90;;;;;;5072698;28;20356;-72
2022/02/09 22:19:43;;;;;;;27.40;25.40;;;5.30;85.40;;;;;;5072706;28;20255;-72
2022/02/09 22:22:29;;;;;;;27.77;25.67;;;5.30;85.10;;;;;;5073146;28;20269;-72
2022/02/09 22:27:50;;;;;;;27.38;25.50;;;5.30;84.90;;;;;;5034446;28;20418;-72
2022/02/09 22:50:04;;;;;;;24.33;22.67;;;5.20;84.60;;;;;;5030464;28;20198;-72
2022/02/09 22:55:22;;;;;;;24.75;23.00;;;5.10;84.80;;;;;;5054755;28;20542;-72
2022/02/09 22:57:55;;;;;;;26.15;24.05;;;5.10;84.90;;;;;;5072606;28;20201;-72
2022/02/09 23:00:57;;;;;;;25.52;23.83;;;5.20;84.80;;;;;;5072358;28;20222;-71